Aberlour, United Kingdom
Current Conditions -  °F | °C
As of 1:50 PM on Tuesday 21 Oct 2014 (Local Time) from EGQS Reporting Station
Scattered Clouds Scattered Clouds  
Wind Chill: 36°   Ceiling: Unl
Heat Index: 46°   Visibility: 6mi
Dew Point: 39°   Wind: 36mph
Humidity: 76%   Direction: 320°NW
Pressure: 29.38"   Gusts: 52mph
Location:  57.53°N, 3.21°W
Report Text: EGQS 211250Z 32031G45KT 9999 FEW021 SCT040 08/04 Q0995 RESHRA BLU TEMPO 7000 SHRA SCT022 WHT
Loading
Personal Weather Stations






























Interactive Weather Map
Tropical Storm Tracking
New forecast layout! Learn more

10-Day Weather Forecast

Advertisements
Track Severe Weather on mobile